createdAt,value
2018-08-06T00:00:08.137Z,97685.91
2018-08-06T00:02:36.684Z,97691.95
2018-08-06T00:05:06.296Z,97690.25
2018-08-06T00:07:34.873Z,97693.26
2018-08-06T00:10:03.481Z,97688.51
2018-08-06T00:12:31.972Z,97685.92
2018-08-06T00:15:00.547Z,97690.69
2018-08-06T00:17:29.140Z,97687.68
2018-08-06T00:19:57.647Z,97686.80
2018-08-06T00:22:26.242Z,97689.80
2018-08-06T00:24:54.753Z,97691.11
2018-08-06T00:27:23.339Z,97687.23
2018-08-06T00:29:51.880Z,97686.81
2018-08-06T00:32:20.461Z,97684.25
2018-08-06T00:34:49.057Z,97682.95
2018-08-06T00:37:17.596Z,97685.53
2018-08-06T00:39:46.110Z,97688.98
2018-08-06T00:42:14.648Z,97685.11
2018-08-06T00:44:43.200Z,97686.81
2018-08-06T00:47:11.712Z,97683.82
2018-08-06T00:49:40.294Z,97682.08
2018-08-06T00:52:08.919Z,97678.21
2018-08-06T00:54:37.433Z,97678.21
2018-08-06T00:57:05.984Z,97678.21
2018-08-06T00:59:34.612Z,97680.79
2018-08-06T01:02:03.132Z,97671.33
2018-08-06T01:04:31.736Z,97667.45
2018-08-06T01:07:00.317Z,97669.16
2018-08-06T01:09:28.904Z,97667.88
2018-08-06T01:11:57.392Z,97670.04
2018-08-06T01:14:25.905Z,97670.45
2018-08-06T01:16:54.396Z,97667.04
2018-08-06T01:19:22.872Z,97662.71
2018-08-06T01:21:51.391Z,97639.38
2018-08-06T01:24:19.864Z,97659.71
2018-08-06T01:26:48.384Z,97661.87
2018-08-06T01:29:16.904Z,97659.30
2018-08-06T01:31:45.436Z,97658.42
2018-08-06T01:34:14.312Z,97656.27
2018-08-06T01:36:42.805Z,97653.67
2018-08-06T01:39:12.964Z,97657.56
2018-08-06T01:41:41.491Z,97652.39
2018-08-06T01:44:10.269Z,97651.98
2018-08-06T01:46:39.252Z,97651.58
2018-08-06T01:49:07.749Z,97652.87
2018-08-06T01:51:36.313Z,97650.27
2018-08-06T01:54:04.896Z,97652.84
2018-08-06T01:56:33.470Z,97647.23
2018-08-06T01:59:02.065Z,97646.80
2018-08-06T02:01:30.673Z,97651.55
2018-08-06T02:03:59.237Z,97641.23
2018-08-06T02:06:27.736Z,97643.81
2018-08-06T02:08:56.255Z,97643.36
2018-08-06T02:11:24.837Z,97644.64
2018-08-06T02:13:53.320Z,97639.48
2018-08-06T02:16:21.923Z,97642.50
2018-08-06T02:18:50.456Z,97642.92
2018-08-06T02:21:19.027Z,97643.34
2018-08-06T02:23:47.540Z,97642.50
2018-08-06T02:26:16.085Z,97646.80
2018-08-06T02:28:44.780Z,97653.25
2018-08-06T02:31:13.305Z,97657.53
2018-08-06T02:33:42.030Z,97656.25
2018-08-06T02:36:10.549Z,97630.33
2018-08-06T02:38:39.043Z,97652.37
2018-08-06T02:41:07.681Z,97651.95
2018-08-06T02:43:36.229Z,97659.70
2018-08-06T02:46:04.821Z,97657.98
2018-08-06T02:48:33.323Z,97660.98
2018-08-06T02:51:01.915Z,97658.41
2018-08-06T02:53:30.564Z,97658.41
2018-08-06T02:55:59.077Z,97657.53
2018-08-06T02:58:27.583Z,97658.41
2018-08-06T03:00:56.196Z,97654.95
2018-08-06T03:03:24.725Z,97649.36
2018-08-06T03:05:53.228Z,97650.64
2018-08-06T03:08:21.837Z,97652.42
2018-08-06T03:15:37.573Z,97656.59
2018-08-06T03:18:06.281Z,97660.03
2018-08-06T03:20:34.783Z,97652.33
2018-08-06T03:23:03.295Z,97658.64
2018-08-06T03:25:31.827Z,97653.75
2018-08-06T03:28:00.424Z,97657.62
2018-08-06T03:30:28.944Z,97646.88
2018-08-06T03:32:57.460Z,97652.33
2018-08-06T03:35:25.965Z,97658.70
2018-08-06T03:37:54.593Z,97657.36
2018-08-06T03:40:23.065Z,97656.81
2018-08-06T03:42:51.547Z,97662.03
2018-08-06T03:45:20.110Z,97660.59
2018-08-06T03:47:48.573Z,97660.38
2018-08-06T03:50:17.064Z,97659.01
2018-08-06T03:52:45.546Z,97663.05
2018-08-06T03:55:14.041Z,97661.98
2018-08-06T03:57:42.742Z,97660.53
2018-08-06T04:00:12.910Z,97654.36
2018-08-06T04:02:41.904Z,97656.83
2018-08-06T04:05:12.463Z,97656.45
2018-08-06T04:07:41.157Z,97654.26
2018-08-06T04:10:11.378Z,97663.11
2018-08-06T04:12:39.889Z,97665.57
2018-08-06T04:15:09.476Z,97665.77
2018-08-06T04:17:38.009Z,97666.88
2018-08-06T04:20:07.839Z,97664.12
2018-08-06T04:22:36.333Z,97670.00
2018-08-06T04:25:05.224Z,97669.39
2018-08-06T04:27:33.800Z,97670.94
2018-08-06T04:30:02.345Z,97670.32
2018-08-06T04:32:30.840Z,97628.53
2018-08-06T04:34:59.393Z,97667.75
2018-08-06T04:37:27.876Z,97669.63
2018-08-06T04:39:56.360Z,97672.41
2018-08-06T04:42:24.851Z,97680.28
2018-08-06T04:44:53.324Z,97679.09
2018-08-06T04:47:21.811Z,97681.38
2018-08-06T04:49:50.296Z,97684.05
2018-08-06T04:52:19.732Z,97695.73
2018-08-06T04:54:48.253Z,97686.38
2018-08-06T04:57:16.824Z,97692.02
2018-08-06T04:59:45.916Z,97691.23
2018-08-06T05:02:14.400Z,97693.86
2018-08-06T05:04:42.903Z,97695.60
2018-08-06T05:07:11.383Z,97692.20
2018-08-06T05:09:40.232Z,97691.42
2018-08-06T05:12:08.911Z,97686.70
2018-08-06T05:14:38.448Z,97688.03
2018-08-06T05:17:07.292Z,97683.81
2018-08-06T05:19:36.466Z,97689.42
2018-08-06T05:22:05.191Z,97685.58
2018-08-06T05:24:33.640Z,97687.78
2018-08-06T05:27:02.080Z,97685.25
2018-08-06T05:29:30.536Z,97692.58
2018-08-06T05:31:59.018Z,97688.32
2018-08-06T05:34:27.564Z,97691.84
2018-08-06T05:36:56.040Z,97691.44
2018-08-06T05:39:24.514Z,97694.89
2018-08-06T05:41:52.980Z,97697.50
2018-08-06T05:44:21.443Z,97700.10
2018-08-06T05:46:49.943Z,97704.41
2018-08-06T05:49:18.387Z,97704.44
2018-08-06T05:51:46.862Z,97699.30
2018-08-06T05:54:15.433Z,97704.06
2018-08-06T05:56:43.924Z,97703.21
2018-08-06T05:59:12.412Z,97709.27
2018-08-06T06:01:40.911Z,97711.45
2018-08-06T06:04:09.456Z,97706.72
2018-08-06T06:06:37.915Z,97707.16
2018-08-06T06:09:08.996Z,97710.62
2018-08-06T06:11:37.781Z,97711.94
2018-08-06T06:14:07.703Z,97710.23
2018-08-06T06:16:36.256Z,97710.66
2018-08-06T06:19:05.219Z,97710.27
2018-08-06T06:21:33.736Z,97709.41
2018-08-06T06:24:02.223Z,97720.60
2018-08-06T06:26:30.699Z,97721.47
2018-08-06T06:28:59.244Z,97719.77
2018-08-06T06:31:27.705Z,97721.05
2018-08-06T06:33:56.156Z,97709.87
2018-08-06T06:36:24.698Z,97706.47
2018-08-06T06:38:53.270Z,97711.21
2018-08-06T06:41:21.744Z,97715.95
2018-08-06T06:43:50.187Z,97713.79
2018-08-06T06:46:18.682Z,97707.36
2018-08-06T06:48:47.150Z,97716.05
2018-08-06T06:51:15.623Z,97717.33
2018-08-06T06:53:44.091Z,97708.74
2018-08-06T06:56:12.576Z,97710.03
2018-08-06T06:58:41.051Z,97712.61
2018-08-06T07:01:09.532Z,97708.76
2018-08-06T07:03:38.026Z,97510.91
2018-08-06T07:06:06.495Z,97713.83
2018-08-06T07:08:34.991Z,97709.96
2018-08-06T07:11:03.452Z,97700.94
2018-08-06T07:13:31.922Z,97702.67
2018-08-06T07:16:00.384Z,97695.37
2018-08-06T07:18:28.847Z,97707.84
2018-08-06T07:20:57.322Z,97700.16
2018-08-06T07:23:25.825Z,97699.33
2018-08-06T07:25:54.316Z,97699.75
2018-08-06T07:28:22.764Z,97697.17
2018-08-06T07:30:51.286Z,97695.89
2018-08-06T07:33:19.748Z,97695.06
2018-08-06T07:35:48.227Z,97696.78
2018-08-06T07:38:16.695Z,97696.39
2018-08-06T07:40:45.205Z,97698.53
2018-08-06T07:43:13.748Z,97697.70
2018-08-06T07:45:42.203Z,97693.39
2018-08-06T07:48:10.706Z,97695.16
2018-08-06T07:50:39.501Z,97694.30
2018-08-06T07:53:08.180Z,97693.03
2018-08-06T07:55:36.983Z,97700.79
2018-08-06T07:58:05.808Z,97690.06
2018-08-06T08:00:34.269Z,97690.92
2018-08-06T08:03:02.745Z,97692.66
2018-08-06T08:05:31.208Z,97693.08
2018-08-06T08:07:59.677Z,97691.40
2018-08-06T08:10:28.400Z,97690.50
2018-08-06T08:12:57.728Z,97690.50
2018-08-06T08:15:27.099Z,97690.92
2018-08-06T08:17:57.214Z,97691.38
2018-08-06T08:20:26.215Z,97690.11
2018-08-06T08:22:54.850Z,97681.08
2018-08-06T08:25:23.896Z,97682.39
2018-08-06T08:27:52.631Z,97676.80
2018-08-06T08:30:21.465Z,97677.67
2018-08-06T08:32:50.213Z,97674.68
2018-08-06T08:35:19.207Z,97679.39
2018-08-06T08:37:47.840Z,97677.30
2018-08-06T08:40:19.176Z,97667.39
2018-08-06T08:42:47.966Z,97671.69
2018-08-06T08:45:17.937Z,97665.23
2018-08-06T08:47:46.853Z,97664.41
2018-08-06T08:50:17.120Z,97653.23
2018-08-06T08:52:45.711Z,97656.69
2018-08-06T08:55:16.729Z,97661.00
2018-08-06T08:57:45.793Z,97655.84
2018-08-06T09:00:18.801Z,97649.85
2018-08-06T09:02:48.740Z,97655.86
2018-08-06T09:05:18.147Z,97647.70
2018-08-06T09:07:47.318Z,97636.09
2018-08-06T09:10:16.683Z,97648.13
2018-08-06T09:12:45.548Z,97648.14
2018-08-06T09:15:17.845Z,97647.73
2018-08-06T09:17:46.592Z,97640.41
2018-08-06T09:20:15.048Z,97641.71
2018-08-06T09:22:44.188Z,97645.18
2018-08-06T09:25:13.395Z,97644.30
2018-08-06T09:27:43.916Z,97643.48
2018-08-06T09:30:14.680Z,97640.45
2018-08-06T09:32:44.949Z,97637.45
2018-08-06T09:35:14.319Z,97634.86
2018-08-06T09:37:43.117Z,97633.16
2018-08-06T09:40:14.471Z,97633.57
2018-08-06T09:42:43.639Z,97633.17
2018-08-06T09:45:13.725Z,97627.55
2018-08-06T09:47:43.576Z,97617.66
2018-08-06T09:50:12.779Z,97617.20
2018-08-06T09:52:42.308Z,97618.06
2018-08-06T09:55:13.611Z,97619.77
2018-08-06T09:57:42.914Z,97614.16
2018-08-06T10:01:19.184Z,97613.30
2018-08-06T10:03:47.721Z,97607.72
2018-08-06T10:06:16.409Z,97614.58
2018-08-06T10:08:44.872Z,97606.00
2018-08-06T10:11:13.491Z,97611.14
2018-08-06T10:13:42.039Z,97610.28
2018-08-06T10:16:10.681Z,97602.95
2018-08-06T10:18:39.362Z,97601.25
2018-08-06T10:21:07.924Z,97598.25
2018-08-06T10:23:36.531Z,97593.09
2018-08-06T10:26:05.012Z,97592.64
2018-08-06T10:28:33.503Z,97590.06
2018-08-06T10:31:02.108Z,97579.31
2018-08-06T10:33:30.721Z,97587.48
2018-08-06T10:35:59.263Z,97587.48
2018-08-06T10:38:27.816Z,97578.90
2018-08-06T10:40:56.465Z,97581.02
2018-08-06T10:43:25.053Z,97581.91
2018-08-06T10:45:53.592Z,97578.91
2018-08-06T10:48:22.192Z,97574.59
2018-08-06T10:50:50.809Z,97572.89
2018-08-06T10:53:19.353Z,97557.00
2018-08-06T10:55:48.289Z,97567.33
2018-08-06T10:58:17.050Z,97565.60
2018-08-06T11:00:45.935Z,97556.16
2018-08-06T11:03:14.624Z,97561.33
2018-08-06T11:05:43.364Z,97556.59
2018-08-06T11:08:12.233Z,97551.90
2018-08-06T11:10:41.070Z,97553.62
2018-08-06T11:13:09.836Z,97548.04
2018-08-06T11:15:38.810Z,97549.34
2018-08-06T11:18:07.632Z,97544.61
2018-08-06T11:20:36.558Z,97545.48
2018-08-06T11:23:05.242Z,97543.75
2018-08-06T11:25:34.037Z,97543.75
2018-08-06T11:28:02.847Z,97535.17
2018-08-06T11:30:31.659Z,97536.02
2018-08-06T11:33:00.675Z,97530.86
2018-08-06T11:35:29.329Z,97533.89
2018-08-06T11:37:57.837Z,97524.41
2018-08-06T11:41:50.820Z,97522.28
2018-08-06T11:44:19.367Z,97509.80
2018-08-06T11:46:47.893Z,97505.92
2018-08-06T11:49:16.529Z,97503.77
2018-08-06T11:51:45.144Z,97514.95
2018-08-06T11:54:13.740Z,97497.31
2018-08-06T11:56:42.399Z,97491.32
2018-08-06T11:59:10.987Z,97489.16
2018-08-06T12:01:39.556Z,97493.91
2018-08-06T12:04:08.453Z,97504.23
2018-08-06T12:06:37.292Z,97499.90
2018-08-06T12:09:08.575Z,97498.20
2018-08-06T12:11:37.923Z,97496.03
2018-08-06T12:14:06.762Z,97498.20
2018-08-06T12:16:35.575Z,97492.61
2018-08-06T12:19:04.304Z,97492.61
2018-08-06T12:21:33.080Z,97486.58
2018-08-06T12:24:01.742Z,97488.73
2018-08-06T12:26:30.506Z,97479.70
2018-08-06T12:28:59.231Z,97477.55
2018-08-06T12:31:28.237Z,97471.98
2018-08-06T12:33:57.159Z,97467.23
2018-08-06T12:36:25.884Z,97464.66
2018-08-06T12:39:13.378Z,97469.84
2018-08-06T12:41:42.176Z,97467.69
2018-08-06T12:44:12.148Z,97465.10
2018-08-06T12:46:41.161Z,97461.73
2018-08-06T12:49:10.362Z,97455.70
2018-08-06T12:51:39.427Z,97459.58
2018-08-06T12:54:08.897Z,97455.72
2018-08-06T12:56:37.816Z,97454.84
2018-08-06T12:59:06.621Z,97447.09
2018-08-06T13:01:35.429Z,97446.69
2018-08-06T13:04:04.044Z,97451.45
2018-08-06T13:06:32.637Z,97447.57
2018-08-06T13:09:01.240Z,97449.70
2018-08-06T13:11:29.801Z,97441.13
2018-08-06T13:13:58.353Z,97439.39
2018-08-06T13:16:26.912Z,97433.80
2018-08-06T13:18:55.523Z,97429.95
2018-08-06T13:21:24.049Z,97429.07
2018-08-06T13:23:52.555Z,97421.30
2018-08-06T13:26:21.109Z,97420.00
2018-08-06T13:28:49.793Z,97418.70
2018-08-06T13:31:18.461Z,97417.44
2018-08-06T13:33:47.093Z,97412.28
2018-08-06T13:36:15.867Z,97415.34
2018-08-06T13:38:44.504Z,97413.19
2018-08-06T13:41:13.273Z,97413.62
2018-08-06T13:43:42.174Z,97408.92
2018-08-06T13:46:10.854Z,97404.17
2018-08-06T13:48:39.736Z,97399.02
2018-08-06T13:51:08.521Z,97393.84
2018-08-06T13:53:37.344Z,97390.84
2018-08-06T13:56:06.110Z,97395.56
2018-08-06T13:58:34.647Z,97391.68
2018-08-06T14:01:03.580Z,97391.69
2018-08-06T14:03:32.248Z,97386.11
2018-08-06T14:06:00.920Z,97388.27
2018-08-06T14:08:29.462Z,97384.39
2018-08-06T14:10:58.037Z,97384.82
2018-08-06T14:13:26.721Z,97379.23
2018-08-06T14:15:55.443Z,97374.07
2018-08-06T14:18:24.124Z,97369.74
2018-08-06T14:20:53.020Z,97365.45
2018-08-06T14:23:21.909Z,97366.73
2018-08-06T14:25:50.750Z,97361.58
2018-08-06T14:28:19.361Z,97359.42
2018-08-06T14:30:47.975Z,97357.30
2018-08-06T14:33:16.618Z,97360.71
2018-08-06T14:35:45.173Z,97349.55
2018-08-06T14:38:13.779Z,97342.64
2018-08-06T14:40:42.297Z,97342.23
2018-08-06T14:43:10.780Z,97339.64
2018-08-06T14:45:39.408Z,97334.89
2018-08-06T14:48:08.060Z,97328.02
2018-08-06T14:50:36.730Z,97329.72
2018-08-06T14:53:05.283Z,97328.89
2018-08-06T14:55:33.905Z,97326.31
2018-08-06T14:58:02.437Z,97321.56
2018-08-06T15:00:30.993Z,97321.56
2018-08-06T15:02:59.540Z,97321.57
2018-08-06T15:05:28.070Z,97314.70
2018-08-06T15:07:56.599Z,97309.54
2018-08-06T15:10:25.171Z,97290.58
2018-08-06T15:12:53.671Z,97304.78
2018-08-06T15:15:22.222Z,97311.25
2018-08-06T15:17:50.702Z,97315.54
2018-08-06T15:20:19.738Z,97309.96
2018-08-06T15:22:48.546Z,97303.92
2018-08-06T15:25:19.032Z,97306.51
2018-08-06T15:27:47.468Z,97305.22
2018-08-06T15:30:15.923Z,97298.34
2018-08-06T15:32:44.424Z,97296.17
2018-08-06T15:35:13.544Z,97297.05
2018-08-06T15:37:43.074Z,97296.63
2018-08-06T15:40:14.080Z,97292.75
2018-08-06T15:42:42.896Z,97291.88
2018-08-06T15:45:12.296Z,97294.88
2018-08-06T15:47:41.455Z,97288.02
2018-08-06T15:50:12.311Z,97296.63
2018-08-06T15:52:40.857Z,97296.63
2018-08-06T15:55:09.456Z,97288.88
2018-08-06T15:57:37.936Z,97285.02
2018-08-06T16:00:08.453Z,97282.84
2018-08-06T16:02:36.931Z,97288.88
2018-08-06T16:05:06.674Z,97288.89
2018-08-06T16:07:35.694Z,97284.14
2018-08-06T16:10:05.112Z,97279.39
2018-08-06T16:12:33.978Z,97288.89
2018-08-06T16:15:03.096Z,97283.27
2018-08-06T16:17:32.052Z,97285.86
2018-08-06T16:20:00.989Z,97287.15
2018-08-06T16:22:29.943Z,97288.44
2018-08-06T16:25:00.391Z,97285.44
2018-08-06T16:27:29.940Z,97281.56
2018-08-06T16:29:58.700Z,97274.69
2018-08-06T16:32:27.553Z,97271.66
2018-08-06T16:34:56.349Z,97269.53
2018-08-06T16:37:25.151Z,97276.40
2018-08-06T16:39:53.961Z,97272.95
2018-08-06T16:42:23.067Z,97272.53
2018-08-06T16:44:52.151Z,97271.66
2018-08-06T16:47:20.647Z,97270.37
2018-08-06T16:49:49.160Z,97269.08
2018-08-06T16:52:17.635Z,97260.48
2018-08-06T16:54:46.111Z,97262.63
2018-08-06T16:57:14.568Z,97257.05
2018-08-06T16:59:43.027Z,97256.17
2018-08-06T17:02:12.075Z,97258.75
2018-08-06T17:04:40.545Z,97258.34
2018-08-06T17:07:09.021Z,97261.79
2018-08-06T17:09:37.625Z,97261.79
2018-08-06T17:12:06.300Z,97270.83
2018-08-06T17:14:34.984Z,97266.09
2018-08-06T17:17:03.450Z,97272.13
2018-08-06T17:19:31.925Z,97262.22
2018-08-06T17:22:00.396Z,97262.64
2018-08-06T17:24:28.865Z,97254.91
2018-08-06T17:26:57.362Z,97258.78
2018-08-06T17:29:25.853Z,97254.06
2018-08-06T17:31:54.320Z,97255.78
2018-08-06T17:34:22.811Z,97252.32
2018-08-06T17:36:52.200Z,97255.36
2018-08-06T17:39:21.331Z,97257.06
2018-08-06T17:41:50.698Z,97254.06
2018-08-06T17:44:19.867Z,97256.65
2018-08-06T17:46:49.221Z,97256.65
2018-08-06T17:49:18.498Z,97258.78
2018-08-06T17:51:47.791Z,97259.23
2018-08-06T17:54:17.194Z,97253.20
2018-08-06T17:56:46.338Z,97263.95
2018-08-06T17:59:15.605Z,97269.11
2018-08-06T18:01:44.874Z,97269.56
2018-08-06T18:04:13.977Z,97267.82
2018-08-06T18:06:43.143Z,97275.56
2018-08-06T18:09:12.991Z,97272.98
2018-08-06T18:11:42.204Z,97279.02
2018-08-06T18:14:11.490Z,97279.44
2018-08-06T18:16:40.670Z,97270.85
2018-08-06T18:19:09.944Z,97281.19
2018-08-06T18:21:39.149Z,97283.31
2018-08-06T18:24:08.403Z,97287.64
2018-08-06T18:26:37.771Z,97291.94
2018-08-06T18:29:06.237Z,97292.80
2018-08-06T18:31:34.723Z,97281.59
2018-08-06T18:34:03.203Z,97278.13
2018-08-06T18:36:31.661Z,97295.80
2018-08-06T18:39:00.125Z,97298.80
2018-08-06T18:41:28.601Z,97296.66
2018-08-06T18:43:57.101Z,97302.66
2018-08-06T18:46:25.576Z,97279.41
2018-08-06T18:48:54.066Z,97294.50
2018-08-06T18:51:22.547Z,97287.16
2018-08-06T18:53:51.121Z,97287.61
2018-08-06T18:56:19.587Z,97298.78
2018-08-06T18:58:48.057Z,97297.94
2018-08-06T19:01:16.518Z,97300.94
2018-08-06T19:03:44.987Z,97286.30
2018-08-06T19:06:13.440Z,97301.36
2018-08-06T19:08:41.903Z,97307.40
2018-08-06T19:11:10.392Z,97306.97
2018-08-06T19:13:44.338Z,97309.98
2018-08-06T19:16:12.800Z,97305.68
2018-08-06T19:18:46.488Z,97308.27
2018-08-06T19:21:14.951Z,97305.23
2018-08-06T19:23:43.436Z,97300.51
2018-08-06T19:26:11.915Z,97298.34
2018-08-06T19:28:40.380Z,97314.27
2018-08-06T19:31:14.380Z,97310.84
2018-08-06T19:33:42.916Z,97315.13
2018-08-06T19:36:11.406Z,97309.55
2018-08-06T19:38:39.867Z,97319.00
2018-08-06T19:41:08.368Z,97316.84
2018-08-06T19:43:38.367Z,97315.12
2018-08-06T19:46:07.745Z,97325.45
2018-08-06T19:48:36.236Z,97316.41
2018-08-06T19:51:04.939Z,97317.28
2018-08-06T19:53:33.767Z,97321.16
2018-08-06T19:56:16.791Z,97319.40
2018-08-06T19:58:45.538Z,97325.86
2018-08-06T20:01:14.020Z,97329.31
2018-08-06T20:03:42.537Z,97320.69
2018-08-06T20:06:11.009Z,97328.89
2018-08-06T20:08:39.468Z,97328.44
2018-08-06T20:11:07.953Z,97330.17
2018-08-06T20:13:36.495Z,97320.66
2018-08-06T20:16:05.127Z,97324.55
2018-08-06T20:18:33.756Z,97315.50
2018-08-06T20:21:02.245Z,97325.41
2018-08-06T20:23:31.064Z,97323.70
2018-08-06T20:25:59.600Z,97315.09
2018-08-06T20:28:28.185Z,97313.80
2018-08-06T20:30:56.795Z,97327.13
2018-08-06T20:33:25.409Z,97315.50
2018-08-06T20:35:53.992Z,97318.09
2018-08-06T20:38:22.515Z,97314.67
2018-08-06T20:40:50.962Z,97316.36
2018-08-06T20:43:19.423Z,97319.83
2018-08-06T20:45:48.017Z,97315.08
2018-08-06T20:48:16.676Z,97320.66
2018-08-06T20:50:45.144Z,97326.27
2018-08-06T20:53:13.591Z,97331.42
2018-08-06T20:55:42.042Z,97333.99
2018-08-06T20:58:10.536Z,97328.83
2018-08-06T21:00:38.978Z,97331.84
2018-08-06T21:03:07.932Z,97330.56
2018-08-06T21:05:36.383Z,97330.14
2018-08-06T21:08:04.847Z,97328.84
2018-08-06T21:10:33.323Z,97341.77
2018-08-06T21:13:01.797Z,97343.05
2018-08-06T21:15:30.255Z,97340.02
2018-08-06T21:17:58.767Z,97343.88
2018-08-06T21:20:27.226Z,97340.87
2018-08-06T21:22:55.704Z,97339.59
2018-08-06T21:25:24.167Z,97343.05
2018-08-06T21:27:52.645Z,97340.47
2018-08-06T21:30:21.975Z,97346.45
2018-08-06T21:32:54.996Z,97330.92
2018-08-06T21:35:24.813Z,97339.58
2018-08-06T21:37:54.179Z,97339.59
2018-08-06T21:40:23.416Z,97343.88
2018-08-06T21:42:52.183Z,97340.45
2018-08-06T21:45:20.888Z,97341.74
2018-08-06T21:47:49.768Z,97344.75
2018-08-06T21:50:18.255Z,97340.87
2018-08-06T21:52:46.807Z,97343.03
2018-08-06T21:55:15.292Z,97341.29
2018-08-06T21:57:43.784Z,97344.32
2018-08-06T22:00:35.664Z,97342.58
2018-08-06T22:03:05.964Z,97335.30
2018-08-06T22:05:34.509Z,97343.88
2018-08-06T22:08:03.310Z,97340.87
2018-08-06T22:10:31.788Z,97341.28
2018-08-06T22:13:00.264Z,97333.48
2018-08-06T22:15:28.748Z,97340.00
2018-08-06T22:17:57.246Z,97336.58
2018-08-06T22:20:25.776Z,97331.41
2018-08-06T22:22:54.832Z,97330.55
2018-08-06T22:25:23.368Z,97332.70
2018-08-06T22:27:51.873Z,97321.09
2018-08-06T22:30:20.369Z,97322.80
2018-08-06T22:32:48.857Z,97317.64
2018-08-06T22:35:17.340Z,97326.25
2018-08-06T22:37:45.833Z,97326.67
2018-08-06T22:40:14.510Z,97321.92
2018-08-06T22:42:43.005Z,97327.50
2018-08-06T22:45:12.583Z,97324.92
2018-08-06T22:47:42.089Z,97323.22
2018-08-06T22:50:12.336Z,97332.66
2018-08-06T22:52:40.900Z,97333.54
2018-08-06T22:55:10.722Z,97333.99
2018-08-06T22:57:39.409Z,97318.00
2018-08-06T23:00:10.101Z,97331.41
2018-08-06T23:02:38.696Z,97327.95
2018-08-06T23:05:07.910Z,97324.05
2018-08-06T23:07:36.808Z,97326.21
2018-08-06T23:10:10.369Z,97319.76
2018-08-06T23:12:38.936Z,97318.00
2018-08-06T23:15:09.657Z,97322.75
2018-08-06T23:17:38.256Z,97315.89
2018-08-06T23:20:07.565Z,97309.84
2018-08-06T23:22:36.143Z,97307.70
2018-08-06T23:25:05.404Z,97306.41
2018-08-06T23:27:33.891Z,97301.25
2018-08-06T23:30:02.389Z,97294.80
2018-08-06T23:32:30.868Z,97298.66
2018-08-06T23:34:59.381Z,97290.50
2018-08-06T23:37:27.847Z,97282.73
2018-08-06T23:39:56.338Z,97302.11
2018-08-06T23:42:24.822Z,97306.84
2018-08-06T23:44:53.298Z,97295.23
2018-08-06T23:47:21.776Z,97286.63
2018-08-06T23:49:50.249Z,97284.05
2018-08-06T23:52:18.835Z,97285.34
2018-08-06T23:54:47.326Z,97279.76
2018-08-06T23:57:15.792Z,97274.14
2018-08-06T23:59:44.284Z,97267.27
